sensor_id;sensor_type;location;lat;lon;timestamp;P1;durP1;ratioP1;P2;durP2;ratioP2
20894;SDS011;10607;42.066;24.742;2022-12-04T00:01:40;61.30;;;23.43;;
20894;SDS011;10607;42.066;24.742;2022-12-04T00:04:06;71.03;;;22.80;;
20894;SDS011;10607;42.066;24.742;2022-12-04T00:06:31;70.97;;;23.07;;
20894;SDS011;10607;42.066;24.742;2022-12-04T00:08:58;56.73;;;23.47;;
20894;SDS011;10607;42.066;24.742;2022-12-04T00:11:24;56.90;;;21.50;;
20894;SDS011;10607;42.066;24.742;2022-12-04T00:13:50;73.03;;;23.17;;
20894;SDS011;10607;42.066;24.742;2022-12-04T00:16:17;80.57;;;23.37;;
20894;SDS011;10607;42.066;24.742;2022-12-04T00:18:42;99.63;;;23.00;;
20894;SDS011;10607;42.066;24.742;2022-12-04T00:21:09;112.73;;;23.00;;
20894;SDS011;10607;42.066;24.742;2022-12-04T00:23:34;78.23;;;23.47;;
20894;SDS011;10607;42.066;24.742;2022-12-04T00:26:00;63.70;;;23.07;;
20894;SDS011;10607;42.066;24.742;2022-12-04T00:28:26;185.23;;;27.07;;
20894;SDS011;10607;42.066;24.742;2022-12-04T00:30:51;135.67;;;23.33;;
20894;SDS011;10607;42.066;24.742;2022-12-04T00:33:16;231.40;;;26.27;;
20894;SDS011;10607;42.066;24.742;2022-12-04T00:35:41;118.77;;;24.50;;
20894;SDS011;10607;42.066;24.742;2022-12-04T00:38:07;203.87;;;27.97;;
20894;SDS011;10607;42.066;24.742;2022-12-04T00:40:32;195.63;;;26.23;;
20894;SDS011;10607;42.066;24.742;2022-12-04T00:42:58;95.00;;;22.67;;
20894;SDS011;10607;42.066;24.742;2022-12-04T00:45:23;231.77;;;27.90;;
20894;SDS011;10607;42.066;24.742;2022-12-04T00:47:48;285.63;;;30.97;;
20894;SDS011;10607;42.066;24.742;2022-12-04T00:50:13;305.60;;;24.53;;
20894;SDS011;10607;42.066;24.742;2022-12-04T00:52:39;262.47;;;28.23;;
20894;SDS011;10607;42.066;24.742;2022-12-04T00:55:04;283.10;;;24.73;;
20894;SDS011;10607;42.066;24.742;2022-12-04T00:57:30;320.10;;;24.10;;
20894;SDS011;10607;42.066;24.742;2022-12-04T00:59:55;287.50;;;22.83;;
20894;SDS011;10607;42.066;24.742;2022-12-04T01:02:20;267.50;;;23.70;;
20894;SDS011;10607;42.066;24.742;2022-12-04T01:04:46;299.07;;;24.00;;
20894;SDS011;10607;42.066;24.742;2022-12-04T01:07:11;403.37;;;25.03;;
20894;SDS011;10607;42.066;24.742;2022-12-04T01:09:36;400.07;;;30.77;;
20894;SDS011;10607;42.066;24.742;2022-12-04T01:12:02;326.10;;;26.50;;
20894;SDS011;10607;42.066;24.742;2022-12-04T01:14:27;470.97;;;30.50;;
20894;SDS011;10607;42.066;24.742;2022-12-04T01:16:52;376.27;;;32.97;;
20894;SDS011;10607;42.066;24.742;2022-12-04T01:19:18;428.40;;;32.27;;
20894;SDS011;10607;42.066;24.742;2022-12-04T01:21:43;376.23;;;31.53;;
20894;SDS011;10607;42.066;24.742;2022-12-04T01:24:08;230.47;;;25.67;;
20894;SDS011;10607;42.066;24.742;2022-12-04T01:26:33;339.47;;;24.93;;
20894;SDS011;10607;42.066;24.742;2022-12-04T01:28:59;247.40;;;25.47;;
20894;SDS011;10607;42.066;24.742;2022-12-04T01:31:24;78.50;;;20.50;;
20894;SDS011;10607;42.066;24.742;2022-12-04T01:33:50;78.90;;;18.73;;
20894;SDS011;10607;42.066;24.742;2022-12-04T01:36:17;81.37;;;20.43;;
20894;SDS011;10607;42.066;24.742;2022-12-04T01:38:43;162.23;;;21.90;;
20894;SDS011;10607;42.066;24.742;2022-12-04T01:41:08;284.03;;;25.97;;
20894;SDS011;10607;42.066;24.742;2022-12-04T01:43:35;238.77;;;24.83;;
20894;SDS011;10607;42.066;24.742;2022-12-04T01:46:00;183.83;;;26.40;;
20894;SDS011;10607;42.066;24.742;2022-12-04T01:53:40;131.60;;;20.80;;
20894;SDS011;10607;42.066;24.742;2022-12-04T01:56:06;125.83;;;21.93;;
20894;SDS011;10607;42.066;24.742;2022-12-04T01:58:34;119.17;;;20.23;;
20894;SDS011;10607;42.066;24.742;2022-12-04T02:01:01;76.37;;;21.50;;
20894;SDS011;10607;42.066;24.742;2022-12-04T02:03:28;59.03;;;20.87;;
20894;SDS011;10607;42.066;24.742;2022-12-04T02:05:53;70.37;;;20.23;;
20894;SDS011;10607;42.066;24.742;2022-12-04T02:08:18;157.43;;;21.40;;
20894;SDS011;10607;42.066;24.742;2022-12-04T02:10:52;97.50;;;22.27;;
20894;SDS011;10607;42.066;24.742;2022-12-04T02:13:21;233.27;;;26.70;;
20894;SDS011;10607;42.066;24.742;2022-12-04T02:15:56;177.57;;;24.60;;
20894;SDS011;10607;42.066;24.742;2022-12-04T02:18:28;183.20;;;23.33;;
20894;SDS011;10607;42.066;24.742;2022-12-04T02:28:56;378.50;;;28.80;;
20894;SDS011;10607;42.066;24.742;2022-12-04T02:31:37;539.30;;;33.77;;
20894;SDS011;10607;42.066;24.742;2022-12-04T02:34:05;498.47;;;36.00;;
20894;SDS011;10607;42.066;24.742;2022-12-04T02:36:34;484.30;;;31.87;;
20894;SDS011;10607;42.066;24.742;2022-12-04T02:39:03;543.13;;;35.47;;
20894;SDS011;10607;42.066;24.742;2022-12-04T02:41:35;517.90;;;40.07;;
20894;SDS011;10607;42.066;24.742;2022-12-04T02:44:03;460.87;;;31.03;;
20894;SDS011;10607;42.066;24.742;2022-12-04T02:46:39;439.50;;;34.63;;
20894;SDS011;10607;42.066;24.742;2022-12-04T02:49:07;594.87;;;35.00;;
20894;SDS011;10607;42.066;24.742;2022-12-04T02:51:34;489.73;;;33.70;;
20894;SDS011;10607;42.066;24.742;2022-12-04T02:54:03;459.47;;;34.47;;
20894;SDS011;10607;42.066;24.742;2022-12-04T02:56:31;295.40;;;28.57;;
20894;SDS011;10607;42.066;24.742;2022-12-04T02:59:00;270.60;;;27.80;;
20894;SDS011;10607;42.066;24.742;2022-12-04T03:01:27;435.10;;;32.23;;
20894;SDS011;10607;42.066;24.742;2022-12-04T03:06:22;472.27;;;38.77;;
20894;SDS011;10607;42.066;24.742;2022-12-04T03:08:50;580.73;;;42.63;;
20894;SDS011;10607;42.066;24.742;2022-12-04T03:11:17;418.00;;;31.33;;
20894;SDS011;10607;42.066;24.742;2022-12-04T03:13:54;438.97;;;37.90;;
20894;SDS011;10607;42.066;24.742;2022-12-04T03:16:24;437.50;;;32.17;;
20894;SDS011;10607;42.066;24.742;2022-12-04T03:21:17;337.67;;;29.83;;
20894;SDS011;10607;42.066;24.742;2022-12-04T03:23:45;324.50;;;29.67;;
20894;SDS011;10607;42.066;24.742;2022-12-04T03:26:28;535.80;;;37.70;;
20894;SDS011;10607;42.066;24.742;2022-12-04T03:31:36;437.13;;;25.70;;
20894;SDS011;10607;42.066;24.742;2022-12-04T03:34:03;328.10;;;26.87;;
20894;SDS011;10607;42.066;24.742;2022-12-04T03:36:31;329.37;;;27.77;;
20894;SDS011;10607;42.066;24.742;2022-12-04T03:39:11;441.67;;;30.40;;
20894;SDS011;10607;42.066;24.742;2022-12-04T03:49:38;346.97;;;27.67;;
20894;SDS011;10607;42.066;24.742;2022-12-04T03:52:15;343.27;;;28.83;;
20894;SDS011;10607;42.066;24.742;2022-12-04T03:54:49;256.17;;;22.63;;
20894;SDS011;10607;42.066;24.742;2022-12-04T03:57:17;287.43;;;24.43;;
20894;SDS011;10607;42.066;24.742;2022-12-04T03:59:49;316.97;;;25.30;;
20894;SDS011;10607;42.066;24.742;2022-12-04T04:02:16;378.87;;;25.93;;
20894;SDS011;10607;42.066;24.742;2022-12-04T04:04:44;233.77;;;25.77;;
20894;SDS011;10607;42.066;24.742;2022-12-04T04:07:17;306.40;;;27.20;;
20894;SDS011;10607;42.066;24.742;2022-12-04T04:09:45;350.27;;;30.53;;
20894;SDS011;10607;42.066;24.742;2022-12-04T04:12:16;374.87;;;26.93;;
20894;SDS011;10607;42.066;24.742;2022-12-04T04:14:51;399.67;;;27.07;;
20894;SDS011;10607;42.066;24.742;2022-12-04T04:17:37;290.57;;;23.37;;
20894;SDS011;10607;42.066;24.742;2022-12-04T04:20:23;255.87;;;24.00;;
20894;SDS011;10607;42.066;24.742;2022-12-04T04:23:10;329.03;;;29.53;;
20894;SDS011;10607;42.066;24.742;2022-12-04T04:25:54;371.07;;;25.93;;
20894;SDS011;10607;42.066;24.742;2022-12-04T04:28:37;461.10;;;30.53;;
20894;SDS011;10607;42.066;24.742;2022-12-04T04:33:27;304.87;;;26.80;;
20894;SDS011;10607;42.066;24.742;2022-12-04T04:36:02;270.40;;;25.97;;
20894;SDS011;10607;42.066;24.742;2022-12-04T04:38:54;173.03;;;25.43;;
20894;SDS011;10607;42.066;24.742;2022-12-04T04:41:18;160.00;;;22.33;;
20894;SDS011;10607;42.066;24.742;2022-12-04T04:43:53;208.03;;;25.50;;
20894;SDS011;10607;42.066;24.742;2022-12-04T04:46:22;228.73;;;25.27;;
20894;SDS011;10607;42.066;24.742;2022-12-04T04:48:53;274.30;;;26.93;;
20894;SDS011;10607;42.066;24.742;2022-12-04T04:51:20;292.33;;;26.23;;
20894;SDS011;10607;42.066;24.742;2022-12-04T04:53:55;213.80;;;26.90;;
20894;SDS011;10607;42.066;24.742;2022-12-04T04:56:22;208.43;;;25.30;;
20894;SDS011;10607;42.066;24.742;2022-12-04T04:58:47;280.23;;;28.73;;
20894;SDS011;10607;42.066;24.742;2022-12-04T05:01:13;151.63;;;27.67;;
20894;SDS011;10607;42.066;24.742;2022-12-04T05:03:40;167.23;;;26.03;;
20894;SDS011;10607;42.066;24.742;2022-12-04T05:06:05;254.03;;;28.63;;
20894;SDS011;10607;42.066;24.742;2022-12-04T05:08:31;314.60;;;30.07;;
20894;SDS011;10607;42.066;24.742;2022-12-04T05:10:56;404.33;;;30.97;;
20894;SDS011;10607;42.066;24.742;2022-12-04T05:13:21;294.93;;;32.23;;
20894;SDS011;10607;42.066;24.742;2022-12-04T05:15:56;246.93;;;31.53;;
20894;SDS011;10607;42.066;24.742;2022-12-04T05:18:22;304.27;;;34.13;;
20894;SDS011;10607;42.066;24.742;2022-12-04T05:20:47;322.97;;;30.63;;
20894;SDS011;10607;42.066;24.742;2022-12-04T05:23:12;288.33;;;36.40;;
20894;SDS011;10607;42.066;24.742;2022-12-04T05:25:37;294.13;;;35.13;;
20894;SDS011;10607;42.066;24.742;2022-12-04T05:28:03;280.37;;;36.03;;
20894;SDS011;10607;42.066;24.742;2022-12-04T05:30:28;328.60;;;34.93;;
20894;SDS011;10607;42.066;24.742;2022-12-04T05:32:53;244.00;;;28.67;;
20894;SDS011;10607;42.066;24.742;2022-12-04T05:35:18;190.30;;;26.73;;
20894;SDS011;10607;42.066;24.742;2022-12-04T05:37:44;175.33;;;27.00;;
20894;SDS011;10607;42.066;24.742;2022-12-04T05:40:09;96.13;;;22.73;;
20894;SDS011;10607;42.066;24.742;2022-12-04T05:42:35;79.33;;;23.67;;
20894;SDS011;10607;42.066;24.742;2022-12-04T05:45:00;68.80;;;24.07;;
20894;SDS011;10607;42.066;24.742;2022-12-04T05:47:25;63.63;;;22.43;;
20894;SDS011;10607;42.066;24.742;2022-12-04T05:49:50;84.07;;;23.00;;
20894;SDS011;10607;42.066;24.742;2022-12-04T05:52:16;216.43;;;28.00;;
20894;SDS011;10607;42.066;24.742;2022-12-04T05:54:41;111.13;;;25.00;;
20894;SDS011;10607;42.066;24.742;2022-12-04T05:57:06;201.63;;;26.10;;
20894;SDS011;10607;42.066;24.742;2022-12-04T05:59:32;217.90;;;26.77;;
20894;SDS011;10607;42.066;24.742;2022-12-04T06:01:57;218.43;;;27.07;;
20894;SDS011;10607;42.066;24.742;2022-12-04T06:04:22;116.87;;;25.47;;
20894;SDS011;10607;42.066;24.742;2022-12-04T06:06:48;147.77;;;23.80;;
20894;SDS011;10607;42.066;24.742;2022-12-04T06:09:13;118.17;;;24.20;;
20894;SDS011;10607;42.066;24.742;2022-12-04T06:11:39;117.73;;;25.50;;
20894;SDS011;10607;42.066;24.742;2022-12-04T06:14:06;113.07;;;24.13;;
20894;SDS011;10607;42.066;24.742;2022-12-04T06:16:41;104.07;;;24.93;;
20894;SDS011;10607;42.066;24.742;2022-12-04T06:19:11;67.10;;;24.37;;
20894;SDS011;10607;42.066;24.742;2022-12-04T06:21:37;93.37;;;22.93;;
20894;SDS011;10607;42.066;24.742;2022-12-04T06:24:03;73.73;;;22.20;;
20894;SDS011;10607;42.066;24.742;2022-12-04T06:26:28;67.43;;;23.43;;
20894;SDS011;10607;42.066;24.742;2022-12-04T06:28:54;65.33;;;21.70;;
20894;SDS011;10607;42.066;24.742;2022-12-04T06:31:21;72.43;;;26.37;;
20894;SDS011;10607;42.066;24.742;2022-12-04T06:33:46;147.30;;;27.77;;
20894;SDS011;10607;42.066;24.742;2022-12-04T06:36:20;124.47;;;30.37;;
20894;SDS011;10607;42.066;24.742;2022-12-04T06:38:46;74.03;;;26.03;;
20894;SDS011;10607;42.066;24.742;2022-12-04T06:41:13;94.23;;;24.80;;
20894;SDS011;10607;42.066;24.742;2022-12-04T06:43:39;102.63;;;23.83;;
20894;SDS011;10607;42.066;24.742;2022-12-04T06:46:06;75.57;;;24.47;;
20894;SDS011;10607;42.066;24.742;2022-12-04T06:48:31;81.80;;;24.67;;
20894;SDS011;10607;42.066;24.742;2022-12-04T06:51:00;67.83;;;23.67;;
20894;SDS011;10607;42.066;24.742;2022-12-04T06:53:26;67.33;;;23.57;;
20894;SDS011;10607;42.066;24.742;2022-12-04T06:55:59;101.23;;;25.70;;
20894;SDS011;10607;42.066;24.742;2022-12-04T06:58:25;85.10;;;25.87;;
20894;SDS011;10607;42.066;24.742;2022-12-04T07:00:50;73.37;;;26.17;;
20894;SDS011;10607;42.066;24.742;2022-12-04T07:03:15;90.63;;;28.10;;
20894;SDS011;10607;42.066;24.742;2022-12-04T07:05:41;85.70;;;29.07;;
20894;SDS011;10607;42.066;24.742;2022-12-04T07:08:06;97.27;;;27.30;;
20894;SDS011;10607;42.066;24.742;2022-12-04T07:10:31;101.17;;;27.97;;
20894;SDS011;10607;42.066;24.742;2022-12-04T07:12:58;129.63;;;31.93;;
20894;SDS011;10607;42.066;24.742;2022-12-04T07:15:24;96.37;;;26.13;;
20894;SDS011;10607;42.066;24.742;2022-12-04T07:17:49;101.50;;;29.23;;
20894;SDS011;10607;42.066;24.742;2022-12-04T07:20:14;100.70;;;29.43;;
20894;SDS011;10607;42.066;24.742;2022-12-04T07:22:39;84.13;;;28.70;;
20894;SDS011;10607;42.066;24.742;2022-12-04T07:25:05;84.37;;;26.30;;
20894;SDS011;10607;42.066;24.742;2022-12-04T07:27:30;94.23;;;27.40;;
20894;SDS011;10607;42.066;24.742;2022-12-04T07:29:55;86.20;;;25.27;;
20894;SDS011;10607;42.066;24.742;2022-12-04T07:32:21;105.53;;;26.50;;
20894;SDS011;10607;42.066;24.742;2022-12-04T07:34:46;88.73;;;27.40;;
20894;SDS011;10607;42.066;24.742;2022-12-04T07:37:11;97.10;;;27.63;;
20894;SDS011;10607;42.066;24.742;2022-12-04T07:39:36;87.70;;;25.13;;
20894;SDS011;10607;42.066;24.742;2022-12-04T07:42:02;124.13;;;26.20;;
20894;SDS011;10607;42.066;24.742;2022-12-04T07:44:29;76.43;;;24.03;;
20894;SDS011;10607;42.066;24.742;2022-12-04T07:46:54;113.63;;;24.80;;
20894;SDS011;10607;42.066;24.742;2022-12-04T07:49:19;150.93;;;29.37;;
20894;SDS011;10607;42.066;24.742;2022-12-04T07:51:45;94.33;;;27.03;;
20894;SDS011;10607;42.066;24.742;2022-12-04T07:54:10;159.67;;;26.90;;
20894;SDS011;10607;42.066;24.742;2022-12-04T07:56:35;131.47;;;27.47;;
20894;SDS011;10607;42.066;24.742;2022-12-04T07:59:00;113.90;;;27.20;;
20894;SDS011;10607;42.066;24.742;2022-12-04T08:01:26;128.07;;;27.53;;
20894;SDS011;10607;42.066;24.742;2022-12-04T08:03:52;100.40;;;26.03;;
20894;SDS011;10607;42.066;24.742;2022-12-04T08:06:20;130.80;;;28.87;;
20894;SDS011;10607;42.066;24.742;2022-12-04T08:08:45;120.47;;;28.73;;
20894;SDS011;10607;42.066;24.742;2022-12-04T08:11:12;112.97;;;30.87;;
20894;SDS011;10607;42.066;24.742;2022-12-04T08:13:37;123.33;;;26.87;;
20894;SDS011;10607;42.066;24.742;2022-12-04T08:16:03;138.47;;;30.67;;
20894;SDS011;10607;42.066;24.742;2022-12-04T08:18:29;145.83;;;36.17;;
20894;SDS011;10607;42.066;24.742;2022-12-04T08:21:01;170.77;;;30.03;;
20894;SDS011;10607;42.066;24.742;2022-12-04T08:23:26;126.97;;;29.07;;
20894;SDS011;10607;42.066;24.742;2022-12-04T08:25:52;177.63;;;29.33;;
20894;SDS011;10607;42.066;24.742;2022-12-04T08:28:17;210.03;;;40.23;;
20894;SDS011;10607;42.066;24.742;2022-12-04T08:30:42;327.10;;;38.67;;
20894;SDS011;10607;42.066;24.742;2022-12-04T08:33:07;161.67;;;29.27;;
20894;SDS011;10607;42.066;24.742;2022-12-04T08:35:33;210.97;;;30.37;;
20894;SDS011;10607;42.066;24.742;2022-12-04T08:37:58;150.80;;;30.17;;
20894;SDS011;10607;42.066;24.742;2022-12-04T08:40:23;173.73;;;34.03;;
20894;SDS011;10607;42.066;24.742;2022-12-04T08:42:48;101.23;;;25.60;;
20894;SDS011;10607;42.066;24.742;2022-12-04T08:45:14;141.57;;;31.07;;
20894;SDS011;10607;42.066;24.742;2022-12-04T08:47:39;138.13;;;30.40;;
20894;SDS011;10607;42.066;24.742;2022-12-04T08:50:04;148.80;;;32.23;;
20894;SDS011;10607;42.066;24.742;2022-12-04T08:52:30;169.30;;;27.53;;
20894;SDS011;10607;42.066;24.742;2022-12-04T08:54:56;216.87;;;29.23;;
20894;SDS011;10607;42.066;24.742;2022-12-04T08:57:21;80.47;;;26.00;;
20894;SDS011;10607;42.066;24.742;2022-12-04T08:59:46;105.57;;;27.37;;
20894;SDS011;10607;42.066;24.742;2022-12-04T09:02:11;131.67;;;30.37;;
20894;SDS011;10607;42.066;24.742;2022-12-04T09:04:37;89.73;;;26.70;;
20894;SDS011;10607;42.066;24.742;2022-12-04T09:07:02;103.70;;;27.10;;
20894;SDS011;10607;42.066;24.742;2022-12-04T09:09:28;100.47;;;26.67;;
20894;SDS011;10607;42.066;24.742;2022-12-04T09:11:53;91.33;;;25.53;;
20894;SDS011;10607;42.066;24.742;2022-12-04T09:14:18;100.00;;;25.47;;
20894;SDS011;10607;42.066;24.742;2022-12-04T09:16:49;115.87;;;35.47;;
20894;SDS011;10607;42.066;24.742;2022-12-04T09:19:14;146.53;;;30.27;;
20894;SDS011;10607;42.066;24.742;2022-12-04T09:21:40;125.87;;;34.13;;
20894;SDS011;10607;42.066;24.742;2022-12-04T09:24:05;138.63;;;31.37;;
20894;SDS011;10607;42.066;24.742;2022-12-04T09:26:31;120.10;;;27.93;;
20894;SDS011;10607;42.066;24.742;2022-12-04T09:28:57;127.70;;;31.80;;
20894;SDS011;10607;42.066;24.742;2022-12-04T09:31:23;166.07;;;32.97;;
20894;SDS011;10607;42.066;24.742;2022-12-04T09:33:48;205.27;;;31.13;;
20894;SDS011;10607;42.066;24.742;2022-12-04T09:36:14;121.73;;;29.53;;
20894;SDS011;10607;42.066;24.742;2022-12-04T09:38:43;113.27;;;32.40;;
20894;SDS011;10607;42.066;24.742;2022-12-04T09:46:20;128.37;;;26.80;;
20894;SDS011;10607;42.066;24.742;2022-12-04T09:48:47;97.53;;;24.90;;
20894;SDS011;10607;42.066;24.742;2022-12-04T09:51:14;74.17;;;24.27;;
20894;SDS011;10607;42.066;24.742;2022-12-04T09:53:46;111.07;;;36.33;;
20894;SDS011;10607;42.066;24.742;2022-12-04T09:56:13;79.10;;;32.73;;
20894;SDS011;10607;42.066;24.742;2022-12-04T09:59:03;97.97;;;35.83;;
20894;SDS011;10607;42.066;24.742;2022-12-04T10:01:31;66.53;;;25.47;;
20894;SDS011;10607;42.066;24.742;2022-12-04T10:03:58;74.77;;;28.23;;
20894;SDS011;10607;42.066;24.742;2022-12-04T10:06:36;77.67;;;29.47;;
20894;SDS011;10607;42.066;24.742;2022-12-04T10:09:06;66.93;;;26.87;;
20894;SDS011;10607;42.066;24.742;2022-12-04T10:21:37;103.70;;;29.63;;
20894;SDS011;10607;42.066;24.742;2022-12-04T10:26:32;78.77;;;26.10;;
20894;SDS011;10607;42.066;24.742;2022-12-04T10:29:00;80.27;;;28.33;;
20894;SDS011;10607;42.066;24.742;2022-12-04T10:31:26;58.20;;;24.83;;
20894;SDS011;10607;42.066;24.742;2022-12-04T10:33:53;55.07;;;24.97;;
20894;SDS011;10607;42.066;24.742;2022-12-04T10:36:21;69.73;;;24.03;;
20894;SDS011;10607;42.066;24.742;2022-12-04T10:41:26;55.30;;;25.57;;
20894;SDS011;10607;42.066;24.742;2022-12-04T10:43:53;61.23;;;25.10;;
20894;SDS011;10607;42.066;24.742;2022-12-04T10:46:29;45.30;;;23.67;;
20894;SDS011;10607;42.066;24.742;2022-12-04T10:49:05;59.50;;;26.03;;
20894;SDS011;10607;42.066;24.742;2022-12-04T10:51:37;49.03;;;22.70;;
20894;SDS011;10607;42.066;24.742;2022-12-04T10:57:03;40.00;;;20.13;;
20894;SDS011;10607;42.066;24.742;2022-12-04T10:59:26;48.90;;;23.77;;
20894;SDS011;10607;42.066;24.742;2022-12-04T11:01:58;37.07;;;19.73;;
20894;SDS011;10607;42.066;24.742;2022-12-04T11:04:24;35.90;;;20.30;;
20894;SDS011;10607;42.066;24.742;2022-12-04T11:06:58;33.67;;;19.17;;
20894;SDS011;10607;42.066;24.742;2022-12-04T11:09:23;36.40;;;17.07;;
20894;SDS011;10607;42.066;24.742;2022-12-04T11:11:50;40.33;;;19.20;;
20894;SDS011;10607;42.066;24.742;2022-12-04T11:14:16;34.10;;;19.33;;
20894;SDS011;10607;42.066;24.742;2022-12-04T11:16:43;40.33;;;20.40;;
20894;SDS011;10607;42.066;24.742;2022-12-04T11:19:42;39.77;;;20.20;;
20894;SDS011;10607;42.066;24.742;2022-12-04T11:22:09;33.60;;;18.67;;
20894;SDS011;10607;42.066;24.742;2022-12-04T11:24:35;34.93;;;20.47;;
20894;SDS011;10607;42.066;24.742;2022-12-04T11:27:02;53.03;;;19.07;;
20894;SDS011;10607;42.066;24.742;2022-12-04T11:29:32;61.10;;;19.57;;
20894;SDS011;10607;42.066;24.742;2022-12-04T11:31:59;76.07;;;20.77;;
20894;SDS011;10607;42.066;24.742;2022-12-04T11:34:27;33.53;;;18.70;;
20894;SDS011;10607;42.066;24.742;2022-12-04T11:36:55;31.53;;;16.80;;
20894;SDS011;10607;42.066;24.742;2022-12-04T11:39:34;73.80;;;23.40;;
20894;SDS011;10607;42.066;24.742;2022-12-04T11:42:02;39.23;;;19.57;;
20894;SDS011;10607;42.066;24.742;2022-12-04T11:44:32;27.57;;;14.83;;
20894;SDS011;10607;42.066;24.742;2022-12-04T11:46:59;43.57;;;17.60;;
20894;SDS011;10607;42.066;24.742;2022-12-04T11:49:26;31.23;;;16.57;;
20894;SDS011;10607;42.066;24.742;2022-12-04T11:57:22;42.20;;;19.70;;
20894;SDS011;10607;42.066;24.742;2022-12-04T12:02:43;35.67;;;17.03;;
20894;SDS011;10607;42.066;24.742;2022-12-04T12:12:52;33.07;;;17.80;;
20894;SDS011;10607;42.066;24.742;2022-12-04T12:15:40;29.23;;;15.80;;
20894;SDS011;10607;42.066;24.742;2022-12-04T12:20:42;29.50;;;13.80;;
20894;SDS011;10607;42.066;24.742;2022-12-04T12:25:53;54.10;;;23.13;;
20894;SDS011;10607;42.066;24.742;2022-12-04T12:28:37;38.83;;;21.47;;
20894;SDS011;10607;42.066;24.742;2022-12-04T12:33:33;28.97;;;14.60;;
20894;SDS011;10607;42.066;24.742;2022-12-04T12:36:07;44.47;;;18.03;;
20894;SDS011;10607;42.066;24.742;2022-12-04T12:38:36;43.17;;;20.83;;
20894;SDS011;10607;42.066;24.742;2022-12-04T12:43:34;35.73;;;19.70;;
20894;SDS011;10607;42.066;24.742;2022-12-04T12:46:14;30.53;;;14.87;;
20894;SDS011;10607;42.066;24.742;2022-12-04T12:48:43;42.23;;;20.63;;
20894;SDS011;10607;42.066;24.742;2022-12-04T12:56:40;31.77;;;16.33;;
20894;SDS011;10607;42.066;24.742;2022-12-04T12:59:09;42.23;;;19.40;;
20894;SDS011;10607;42.066;24.742;2022-12-04T13:01:44;45.83;;;18.63;;
20894;SDS011;10607;42.066;24.742;2022-12-04T13:06:41;44.97;;;19.17;;
20894;SDS011;10607;42.066;24.742;2022-12-04T13:11:59;48.43;;;20.03;;
20894;SDS011;10607;42.066;24.742;2022-12-04T13:14:26;34.97;;;14.43;;
20894;SDS011;10607;42.066;24.742;2022-12-04T13:16:57;41.30;;;13.60;;
20894;SDS011;10607;42.066;24.742;2022-12-04T13:21:55;40.90;;;13.80;;
20894;SDS011;10607;42.066;24.742;2022-12-04T13:42:33;52.67;;;21.43;;
20894;SDS011;10607;42.066;24.742;2022-12-04T13:45:02;42.73;;;18.07;;
20894;SDS011;10607;42.066;24.742;2022-12-04T13:47:32;40.70;;;14.60;;
20894;SDS011;10607;42.066;24.742;2022-12-04T13:50:08;81.67;;;28.20;;
20894;SDS011;10607;42.066;24.742;2022-12-04T13:52:40;94.73;;;31.30;;
20894;SDS011;10607;42.066;24.742;2022-12-04T13:55:28;192.80;;;58.13;;
20894;SDS011;10607;42.066;24.742;2022-12-04T13:57:55;228.13;;;79.80;;
20894;SDS011;10607;42.066;24.742;2022-12-04T14:02:52;57.53;;;27.00;;
20894;SDS011;10607;42.066;24.742;2022-12-04T14:05:24;23.53;;;10.93;;
20894;SDS011;10607;42.066;24.742;2022-12-04T14:08:01;24.07;;;10.43;;
20894;SDS011;10607;42.066;24.742;2022-12-04T14:10:28;18.53;;;8.47;;
20894;SDS011;10607;42.066;24.742;2022-12-04T14:12:57;35.13;;;16.83;;
20894;SDS011;10607;42.066;24.742;2022-12-04T14:15:27;27.20;;;11.77;;
20894;SDS011;10607;42.066;24.742;2022-12-04T14:18:00;24.50;;;12.33;;
20894;SDS011;10607;42.066;24.742;2022-12-04T14:20:27;27.17;;;13.63;;
20894;SDS011;10607;42.066;24.742;2022-12-04T14:22:53;25.67;;;11.90;;
20894;SDS011;10607;42.066;24.742;2022-12-04T14:27:45;23.73;;;10.23;;
20894;SDS011;10607;42.066;24.742;2022-12-04T14:30:18;17.60;;;11.17;;
20894;SDS011;10607;42.066;24.742;2022-12-04T14:32:44;21.70;;;11.70;;
20894;SDS011;10607;42.066;24.742;2022-12-04T14:35:18;28.90;;;12.53;;
20894;SDS011;10607;42.066;24.742;2022-12-04T14:37:48;28.90;;;11.43;;
20894;SDS011;10607;42.066;24.742;2022-12-04T14:40:36;29.77;;;13.07;;
20894;SDS011;10607;42.066;24.742;2022-12-04T14:42:59;37.50;;;17.37;;
20894;SDS011;10607;42.066;24.742;2022-12-04T14:45:30;31.37;;;14.57;;
20894;SDS011;10607;42.066;24.742;2022-12-04T14:50:57;36.40;;;16.13;;
20894;SDS011;10607;42.066;24.742;2022-12-04T14:58:30;38.80;;;16.67;;
20894;SDS011;10607;42.066;24.742;2022-12-04T15:03:25;33.30;;;16.83;;
20894;SDS011;10607;42.066;24.742;2022-12-04T15:05:59;30.80;;;16.67;;
20894;SDS011;10607;42.066;24.742;2022-12-04T15:08:25;36.33;;;19.03;;
20894;SDS011;10607;42.066;24.742;2022-12-04T15:10:50;41.27;;;20.90;;
20894;SDS011;10607;42.066;24.742;2022-12-04T15:13:35;43.93;;;20.63;;
20894;SDS011;10607;42.066;24.742;2022-12-04T15:16:07;44.10;;;20.80;;
20894;SDS011;10607;42.066;24.742;2022-12-04T15:18:32;31.97;;;15.07;;
20894;SDS011;10607;42.066;24.742;2022-12-04T15:20:58;30.40;;;14.30;;
20894;SDS011;10607;42.066;24.742;2022-12-04T15:25:53;47.37;;;21.67;;
20894;SDS011;10607;42.066;24.742;2022-12-04T15:28:20;45.80;;;21.70;;
20894;SDS011;10607;42.066;24.742;2022-12-04T15:30:47;43.87;;;20.57;;
20894;SDS011;10607;42.066;24.742;2022-12-04T15:33:55;33.93;;;17.23;;
20894;SDS011;10607;42.066;24.742;2022-12-04T15:36:02;38.83;;;16.57;;
20894;SDS011;10607;42.066;24.742;2022-12-04T15:38:29;24.07;;;13.50;;
20894;SDS011;10607;42.066;24.742;2022-12-04T15:40:56;23.43;;;14.13;;
20894;SDS011;10607;42.066;24.742;2022-12-04T15:43:26;32.17;;;15.97;;
20894;SDS011;10607;42.066;24.742;2022-12-04T15:45:52;42.77;;;24.67;;
20894;SDS011;10607;42.066;24.742;2022-12-04T15:48:24;43.97;;;28.23;;
20894;SDS011;10607;42.066;24.742;2022-12-04T15:50:54;74.43;;;34.47;;
20894;SDS011;10607;42.066;24.742;2022-12-04T15:53:21;59.23;;;32.10;;
20894;SDS011;10607;42.066;24.742;2022-12-04T15:55:48;42.67;;;23.20;;
20894;SDS011;10607;42.066;24.742;2022-12-04T15:58:19;47.90;;;27.40;;
20894;SDS011;10607;42.066;24.742;2022-12-04T16:00:46;49.63;;;25.00;;
20894;SDS011;10607;42.066;24.742;2022-12-04T16:05:46;40.50;;;24.43;;
20894;SDS011;10607;42.066;24.742;2022-12-04T16:08:24;31.90;;;18.57;;
20894;SDS011;10607;42.066;24.742;2022-12-04T16:16:34;44.53;;;21.87;;
20894;SDS011;10607;42.066;24.742;2022-12-04T16:19:05;53.53;;;24.13;;
20894;SDS011;10607;42.066;24.742;2022-12-04T16:21:31;66.60;;;28.47;;
20894;SDS011;10607;42.066;24.742;2022-12-04T16:24:01;73.80;;;30.63;;
20894;SDS011;10607;42.066;24.742;2022-12-04T16:26:26;72.00;;;32.77;;
20894;SDS011;10607;42.066;24.742;2022-12-04T16:28:52;56.53;;;25.47;;